SBCR/CMG METAR and TAF weather

Enter ICAO airport designator
Station Type Date Time Source
SBCR METAR 2019/10/22 21:00 UTC NOAA

SBCR 222100Z 00000KT CAVOK 32/09 Q1008


Station Type Date Time Source
SBCR Decoded METAR 2019/10/22 21:00 UTC NOAA

Corumba, Brazil (SBCR) 19-05S 057-30W
Oct 22, 2019 - 05:00 PM EDT / 2019.10.22 2100 UTC
Wind: Calm:0
Visibility: greater than 7 mile(s):0
Temperature: 89 F (32 C)
Dew Point: 48 F (9 C)
Relative Humidity: 24%
Pressure (altimeter): 29.77 in. Hg (1008 hPa)
ob: SBCR 222100Z 00000KT CAVOK 32/09 Q1008
cycle: 21

Station Type Date Time Source
SBCR TAF 2019/10/23 00:00 UTC NOAA

TAF SBCR 222100Z 2300/2324 23006KT CAVOK TN20/2308Z TX35/2317Z PROB30 2308/2311 6000 BKN006
TEMPO 2314/2320 9999 FEW020
RMK PDJ

Example: see airport list